Time;durP1;ratioP1;P1;durP2;ratioP2;P2;SDS_P1;SDS_P2;PMS_P1;PMS_P2;Temp;Humidity;BMP_temperature;BMP_pressure;BME280_temperature;BME280_humidity;BME280_pressure;Samples;Min_cycle;Max_cycle;Signal;HPM_P1;HPM_P2
2021/05/13 00:00:12;;;;;;;30.90;14.93;;;7.50;99.90;;;;;;4160823;28;20029;-80
2021/05/13 00:02:13;;;;;;;26.40;13.10;;;7.50;99.90;;;;;;4165247;28;20057;-79
2021/05/13 00:04:14;;;;;;;25.55;14.00;;;7.50;99.90;;;;;;4163835;28;20047;-79
2021/05/13 00:06:15;;;;;;;19.35;11.48;;;7.40;99.90;;;;;;4166787;28;20113;-79
2021/05/13 00:08:34;;;;;;;25.77;12.65;;;7.40;99.90;;;;;;4171894;28;20025;-78
2021/05/13 00:10:35;;;;;;;24.08;14.10;;;7.30;99.90;;;;;;4165089;28;20109;-79
2021/05/13 00:12:39;;;;;;;26.50;13.80;;;7.30;99.90;;;;;;4168840;28;20112;-79
2021/05/13 00:14:39;;;;;;;;;;;7.30;99.90;;;;;;4163227;28;20409;-78
2021/05/13 00:21:57;;;;;;;19.48;11.35;;;7.20;99.90;;;;;;4159275;28;20040;-78
2021/05/13 00:23:58;;;;;;;23.20;12.55;;;7.10;99.90;;;;;;4166015;28;20048;-79
2021/05/13 00:26:00;;;;;;;23.55;12.95;;;7.10;99.90;;;;;;4174214;28;20030;-79
2021/05/13 00:33:18;;;;;;;20.77;12.55;;;7.00;99.90;;;;;;4153972;28;20100;-79
2021/05/13 00:37:58;;;;;;;24.55;13.00;;;7.00;99.90;;;;;;4173633;28;20125;-79
2021/05/13 00:42:57;;;;;;;19.85;13.27;;;6.90;99.90;;;;;;4165112;28;20060;-79
2021/05/13 00:45:35;;;;;;;22.67;12.68;;;6.80;99.90;;;;;;4157919;28;20029;-80
2021/05/13 00:47:38;;;;;;;26.83;12.93;;;6.80;99.90;;;;;;4154939;28;20108;-79
2021/05/13 00:49:58;;;;;;;23.42;13.60;;;6.80;99.90;;;;;;4157758;28;20041;-79
2021/05/13 00:51:59;;;;;;;25.95;12.63;;;6.80;99.90;;;;;;4161773;28;20033;-80
2021/05/13 00:54:00;;;;;;;24.00;13.68;;;6.80;99.90;;;;;;4165577;28;20033;-79
2021/05/13 00:56:19;;;;;;;23.70;12.65;;;6.80;99.90;;;;;;4163198;28;20067;-80
2021/05/13 00:58:26;;;;;;;25.65;14.25;;;6.80;99.90;;;;;;4162787;28;20120;-79
2021/05/13 01:03:19;;;;;;;22.58;13.63;;;6.80;99.90;;;;;;4151598;28;20033;-79
2021/05/13 01:05:20;;;;;;;18.13;12.05;;;6.70;99.90;;;;;;4157488;28;20030;-79
2021/05/13 01:12:08;;;;;;;23.52;13.00;;;6.70;99.90;;;;;;4153180;28;20104;-79
2021/05/13 01:14:31;;;;;;;24.65;13.73;;;6.80;99.90;;;;;;4155726;28;20037;-79
2021/05/13 01:21:51;;;;;;;26.75;15.13;;;6.50;99.90;;;;;;4163429;28;20139;-79
2021/05/13 01:26:14;;;;;;;25.50;13.35;;;6.50;99.90;;;;;;4158315;28;20032;-79
2021/05/13 01:28:33;;;;;;;25.55;14.30;;;6.50;99.90;;;;;;4161522;28;20511;-79
2021/05/13 01:30:53;;;;;;;34.70;13.82;;;6.50;99.90;;;;;;4174951;28;20029;-79
2021/05/13 01:38:12;;;;;;;25.25;14.73;;;6.60;99.90;;;;;;4163524;28;20051;-79
2021/05/13 01:40:19;;;;;;;28.33;14.45;;;6.50;99.90;;;;;;4172353;28;20734;-79
2021/05/13 01:42:20;;;;;;;29.17;15.02;;;6.50;99.90;;;;;;4169454;28;20034;-80
2021/05/13 01:46:58;;;;;;;32.20;16.27;;;6.60;99.90;;;;;;4166488;28;20063;-79
2021/05/13 01:48:59;;;;;;;29.48;14.93;;;6.60;99.90;;;;;;4161411;28;20029;-80
2021/05/13 01:51:20;;;;;;;26.88;15.98;;;6.60;99.90;;;;;;4162849;28;20026;-80
2021/05/13 01:53:22;;;;;;;33.53;17.40;;;6.60;99.90;;;;;;4167874;28;20025;-79
2021/05/13 01:55:23;;;;;;;32.58;17.60;;;6.70;99.90;;;;;;4176530;28;20029;-80
2021/05/13 01:57:24;;;;;;;37.20;18.20;;;6.70;99.90;;;;;;4159211;28;20116;-79
2021/05/13 01:59:24;;;;;;;26.90;16.17;;;6.70;99.90;;;;;;4157425;28;20433;-80
2021/05/13 02:04:22;;;;;;;25.48;15.43;;;6.60;99.90;;;;;;4159781;28;20142;-81
2021/05/13 02:06:24;;;;;;;22.52;14.32;;;6.50;99.90;;;;;;4165079;28;20096;-78
2021/05/13 02:08:25;;;;;;;23.75;13.73;;;6.50;99.90;;;;;;4151723;28;20026;-78
2021/05/13 02:13:04;;;;;;;24.98;15.02;;;6.40;99.90;;;;;;4171911;28;20035;-79
2021/05/13 02:15:07;;;;;;;24.63;14.90;;;6.30;99.90;;;;;;4170070;28;20045;-79
2021/05/13 02:17:08;;;;;;;31.95;16.67;;;6.30;99.90;;;;;;4166358;28;20078;-79
2021/05/13 02:19:27;;;;;;;31.90;16.77;;;6.40;99.90;;;;;;4167589;28;20064;-79
2021/05/13 02:21:30;;;;;;;27.05;15.23;;;6.40;99.90;;;;;;4173238;28;20372;-79
2021/05/13 02:23:31;;;;;;;31.65;16.13;;;6.40;99.90;;;;;;4172459;28;20172;-79
2021/05/13 02:25:50;;;;;;;27.65;14.88;;;6.40;99.90;;;;;;4172066;28;20408;-79
2021/05/13 02:28:09;;;;;;;24.90;14.38;;;6.40;99.90;;;;;;4167334;28;20061;-78
2021/05/13 02:30:12;;;;;;;24.48;14.73;;;6.50;99.90;;;;;;4154777;28;20495;-78
2021/05/13 02:32:13;;;;;;;29.45;15.88;;;6.40;99.90;;;;;;4168941;28;20162;-80
2021/05/13 02:34:32;;;;;;;18.73;11.65;;;6.30;99.90;;;;;;4163652;28;20124;-78
2021/05/13 02:36:33;;;;;;;24.33;12.85;;;6.30;99.90;;;;;;4161751;28;20086;-78
2021/05/13 02:38:53;;;;;;;19.35;12.35;;;6.20;99.90;;;;;;4177927;28;20502;-78
2021/05/13 02:41:12;;;;;;;15.77;11.65;;;6.20;99.90;;;;;;4164991;28;20041;-79
2021/05/13 02:43:13;;;;;;;25.77;14.43;;;6.10;99.90;;;;;;4152386;28;20045;-79
2021/05/13 02:45:15;;;;;;;27.90;15.65;;;6.20;99.90;;;;;;4150096;28;20381;-79
2021/05/13 02:54:13;;;;;;;22.00;12.80;;;6.30;99.90;;;;;;4169150;28;20115;-78
2021/05/13 02:56:15;;;;;;;21.92;14.25;;;6.40;99.90;;;;;;4156628;28;20315;-79
2021/05/13 03:03:07;;;;;;;25.50;14.05;;;6.20;99.90;;;;;;4161475;28;20028;-79
2021/05/13 03:05:08;;;;;;;19.30;12.85;;;6.30;99.90;;;;;;4166811;28;20102;-79
2021/05/13 03:11:49;;;;;;;24.27;15.95;;;6.40;99.90;;;;;;4169211;28;20383;-79
2021/05/13 03:18:52;;;;;;;22.38;14.63;;;6.50;99.90;;;;;;4168848;28;20116;-80
2021/05/13 03:23:48;;;;;;;33.00;18.40;;;6.30;99.90;;;;;;4154990;28;20022;-79
2021/05/13 03:25:56;;;;;;;39.25;20.70;;;6.30;99.90;;;;;;4162984;28;20037;-79
2021/05/13 03:28:16;;;;;;;38.28;20.10;;;6.30;99.90;;;;;;4170643;28;20062;-79
2021/05/13 03:30:19;;;;;;;36.58;18.92;;;6.20;99.90;;;;;;4174071;28;20075;-79
2021/05/13 03:32:20;;;;;;;;;;;6.20;99.90;;;;;;4175963;28;20499;-79
2021/05/13 03:36:40;;;;;;;35.17;15.93;;;6.10;99.90;;;;;;4172135;28;20555;-80
2021/05/13 03:39:00;;;;;;;27.48;17.67;;;6.10;99.90;;;;;;4173147;28;20033;-79
2021/05/13 03:41:00;;;;;;;33.83;16.25;;;6.20;99.90;;;;;;4173259;28;20068;-79
2021/05/13 03:45:40;;;;;;;33.40;21.48;;;6.30;99.90;;;;;;4165192;28;20416;-79
2021/05/13 03:47:41;;;;;;;32.13;19.08;;;6.40;99.90;;;;;;4157097;28;20039;-80
2021/05/13 03:50:00;;;;;;;36.72;20.05;;;6.50;99.90;;;;;;4162277;28;20049;-79
2021/05/13 03:52:01;;;;;;;30.67;20.20;;;6.50;99.90;;;;;;4159927;28;20409;-79
2021/05/13 03:54:20;;;;;;;35.53;21.50;;;6.50;99.90;;;;;;4166032;28;20033;-80
2021/05/13 03:56:20;;;;;;;31.58;20.95;;;6.50;99.90;;;;;;4166503;28;20068;-79
2021/05/13 03:58:52;;;;;;;32.92;21.60;;;6.50;99.90;;;;;;4153562;28;20418;-81
2021/05/13 04:02:53;;;;;;;36.50;22.33;;;6.30;99.90;;;;;;4161252;28;20040;-79
2021/05/13 04:05:12;;;;;;;35.58;20.63;;;6.20;99.90;;;;;;4162544;28;20038;-80
2021/05/13 04:10:29;;;;;;;36.03;21.17;;;6.20;99.90;;;;;;4158164;28;20159;-78
2021/05/13 04:12:51;;;;;;;35.20;21.45;;;6.20;99.90;;;;;;4166391;28;20549;-79
2021/05/13 04:15:29;;;;;;;34.65;20.65;;;6.20;99.90;;;;;;4170550;28;20044;-79
2021/05/13 04:17:49;;;;;;;37.28;20.23;;;6.20;99.90;;;;;;4163469;28;20092;-79
2021/05/13 04:22:28;;;;;;;62.35;41.47;;;6.20;99.90;;;;;;4165980;28;20444;-79
2021/05/13 04:26:49;;;;;;;74.63;50.65;;;6.40;99.90;;;;;;4168741;28;20488;-79
2021/05/13 04:29:08;;;;;;;66.68;41.83;;;6.40;99.90;;;;;;4165892;28;20038;-79
2021/05/13 04:31:09;;;;;;;40.50;26.05;;;6.40;99.90;;;;;;4168452;28;20030;-79
2021/05/13 04:33:30;;;;;;;47.80;29.08;;;6.40;99.90;;;;;;4173154;28;20022;-79
2021/05/13 04:38:15;;;;;;;48.85;28.00;;;6.50;99.90;;;;;;4170212;28;20033;-79
2021/05/13 04:42:54;;;;;;;42.55;22.92;;;6.70;99.90;;;;;;4176372;28;20408;-79
2021/05/13 04:44:56;;;;;;;37.95;23.13;;;6.80;99.90;;;;;;4162935;28;20176;-79
2021/05/13 04:46:59;;;;;;;38.88;23.33;;;6.80;99.90;;;;;;4170680;28;20154;-79
2021/05/13 04:49:19;;;;;;;40.03;23.67;;;6.80;99.90;;;;;;4162601;28;20029;-79
2021/05/13 04:51:26;;;;;;;36.92;21.77;;;6.80;99.90;;;;;;4164927;28;20108;-79
2021/05/13 04:53:46;;;;;;;36.17;20.30;;;6.80;99.90;;;;;;4167183;28;20046;-79
2021/05/13 04:55:47;;;;;;;45.78;22.83;;;6.80;99.90;;;;;;4172455;28;20059;-80
2021/05/13 05:00:26;;;;;;;37.83;22.77;;;6.90;99.90;;;;;;4157327;28;20025;-79
2021/05/13 05:02:45;;;;;;;46.05;24.92;;;7.10;99.90;;;;;;4165897;28;20026;-80
2021/05/13 05:07:05;;;;;;;46.28;26.63;;;7.20;99.90;;;;;;4176527;28;20499;-80
2021/05/13 05:09:25;;;;;;;49.50;28.50;;;7.30;99.90;;;;;;4156333;28;20037;-79
2021/05/13 05:11:25;;;;;;;42.78;27.25;;;7.40;99.90;;;;;;4169609;28;20030;-79
2021/05/13 05:13:26;;;;;;;40.30;26.35;;;7.40;99.90;;;;;;4178279;28;20123;-80
2021/05/13 05:15:46;;;;;;;42.92;26.40;;;7.50;99.90;;;;;;4168403;28;20091;-80
2021/05/13 05:20:06;;;;;;;41.83;26.33;;;7.60;99.90;;;;;;4168000;28;20048;-80
2021/05/13 05:22:26;;;;;;;40.65;27.00;;;7.70;99.90;;;;;;4171490;28;20040;-80
2021/05/13 05:29:47;;;;;;;43.85;27.17;;;7.90;99.90;;;;;;4173653;28;20040;-80
2021/05/13 05:31:51;;;;;;;40.58;24.83;;;8.00;99.90;;;;;;4169716;28;20110;-79
2021/05/13 05:33:52;;;;;;;47.58;28.10;;;8.00;99.90;;;;;;4171264;28;20075;-80
2021/05/13 05:35:53;;;;;;;38.92;25.52;;;8.10;99.90;;;;;;4173622;28;20029;-80
2021/05/13 05:42:52;;;;;;;43.00;25.45;;;8.30;99.90;;;;;;4170861;28;20463;-79
2021/05/13 05:44:52;;;;;;;41.10;26.88;;;8.40;99.90;;;;;;4169851;28;20474;-80
2021/05/13 05:46:53;;;;;;;45.65;26.00;;;8.40;99.90;;;;;;4171703;28;20052;-80
2021/05/13 05:48:55;;;;;;;41.33;25.90;;;8.50;99.90;;;;;;4173664;28;20168;-80
2021/05/13 05:53:54;;;;;;;40.25;25.02;;;8.60;99.90;;;;;;4173209;28;20388;-80
2021/05/13 05:59:10;;;;;;;41.22;26.98;;;8.70;99.90;;;;;;4173048;28;20116;-79
2021/05/13 06:01:10;;;;;;;41.88;24.75;;;8.70;99.90;;;;;;4169216;28;20425;-80
2021/05/13 06:03:29;;;;;;;45.83;26.00;;;8.70;99.90;;;;;;4172245;28;20029;-79
2021/05/13 06:05:31;;;;;;;47.72;26.90;;;8.90;99.90;;;;;;4171465;28;20041;-80
2021/05/13 06:08:09;;;;;;;49.20;29.20;;;8.90;99.90;;;;;;4167842;28;20033;-80
2021/05/13 06:15:27;;;;;;;36.42;24.75;;;9.40;99.90;;;;;;4172917;28;20047;-80
2021/05/13 06:17:47;;;;;;;36.42;25.67;;;9.60;99.90;;;;;;4171433;28;20033;-79
2021/05/13 06:22:07;;;;;;;41.13;27.63;;;9.80;99.90;;;;;;4170062;28;20024;-80
2021/05/13 06:24:11;;;;;;;38.55;26.70;;;9.80;99.90;;;;;;4167207;28;20109;-79
2021/05/13 06:26:35;;;;;;;;;;;9.80;99.90;;;;;;4168144;28;20394;-79
2021/05/13 06:28:57;;;;;;;42.72;26.83;;;9.80;99.90;;;;;;4170462;28;19913;-79
2021/05/13 06:30:59;;;;;;;38.47;28.40;;;10.00;99.90;;;;;;4170561;28;20026;-79
2021/05/13 06:33:18;;;;;;;38.47;26.98;;;10.10;99.90;;;;;;4168615;28;20072;-79
2021/05/13 06:35:20;;;;;;;34.20;27.55;;;10.10;99.90;;;;;;4173844;28;20033;-79
2021/05/13 06:37:21;;;;;;;41.17;26.92;;;10.20;99.90;;;;;;4168737;28;20040;-79
2021/05/13 06:42:01;;;;;;;38.40;28.63;;;10.30;99.90;;;;;;4168036;28;20056;-80
2021/05/13 06:44:02;;;;;;;40.55;28.35;;;10.40;99.90;;;;;;4172701;28;20059;-80
2021/05/13 06:49:01;;;;;;;36.58;27.80;;;10.50;99.90;;;;;;4175014;28;20156;-80
2021/05/13 06:51:03;;;;;;;33.70;27.75;;;10.50;99.90;;;;;;4171955;28;20468;-80
2021/05/13 06:53:03;;;;;;;40.70;27.90;;;10.60;99.90;;;;;;4173324;28;20029;-79
2021/05/13 06:55:05;;;;;;;37.25;27.23;;;10.70;99.90;;;;;;4172960;28;20388;-79
2021/05/13 06:57:24;;;;;;;32.63;25.40;;;10.80;99.90;;;;;;4170527;28;20037;-81
2021/05/13 06:59:43;;;;;;;29.80;25.02;;;10.90;99.90;;;;;;4169187;28;20115;-80
2021/05/13 07:01:44;;;;;;;36.75;25.40;;;11.00;99.90;;;;;;4169058;28;20037;-81
2021/05/13 07:03:45;;;;;;;33.05;25.60;;;11.10;99.90;;;;;;4166160;28;20096;-80
2021/05/13 07:05:45;;;;;;;33.28;25.73;;;11.20;99.90;;;;;;4169408;28;20810;-81
2021/05/13 07:07:48;;;;;;;32.28;25.75;;;11.30;99.90;;;;;;4174432;28;20396;-80
2021/05/13 07:10:07;;;;;;;33.42;26.25;;;11.40;99.90;;;;;;4162395;28;20504;-80
2021/05/13 07:12:26;;;;;;;39.97;27.13;;;11.50;99.90;;;;;;4160828;28;20029;-79
2021/05/13 07:14:27;;;;;;;34.65;26.40;;;11.60;99.90;;;;;;4167203;28;20029;-79
2021/05/13 07:16:48;;;;;;;29.63;24.40;;;11.70;99.90;;;;;;4170942;28;20401;-79
2021/05/13 07:23:46;;;;;;;30.92;23.75;;;12.10;99.90;;;;;;4172461;28;20040;-80
2021/05/13 07:25:47;;;;;;;27.95;23.77;;;12.20;99.90;;;;;;4166536;28;20064;-79
2021/05/13 07:28:07;;;;;;;31.77;24.38;;;12.40;99.90;;;;;;4172072;28;20035;-79
2021/05/13 07:30:08;;;;;;;28.58;24.17;;;12.50;99.90;;;;;;4174660;28;20492;-79
2021/05/13 07:34:28;;;;;;;26.25;22.50;;;12.70;99.90;;;;;;4170577;28;20033;-79
2021/05/13 07:36:29;;;;;;;28.35;22.73;;;12.90;99.90;;;;;;4165700;28;20029;-80
2021/05/13 07:38:48;;;;;;;30.05;23.48;;;13.00;99.90;;;;;;4174602;28;20045;-79
2021/05/13 07:40:50;;;;;;;28.80;21.80;;;13.20;99.90;;;;;;4162366;28;20041;-79
2021/05/13 07:45:49;;;;;;;23.15;20.58;;;13.40;99.90;;;;;;4164669;28;20051;-79
2021/05/13 07:47:50;;;;;;;23.83;21.30;;;13.60;99.90;;;;;;4166903;28;20484;-79
2021/05/13 07:52:34;;;;;;;24.20;20.38;;;13.80;99.90;;;;;;4175430;28;20052;-79
2021/05/13 07:54:35;;;;;;;22.23;20.05;;;14.00;99.90;;;;;;4177545;28;20408;-78
2021/05/13 07:56:55;;;;;;;22.13;19.45;;;14.10;99.90;;;;;;4179961;28;20087;-80
2021/05/13 07:58:56;;;;;;;21.85;19.63;;;14.30;99.90;;;;;;4163718;28;20125;-78
2021/05/13 08:03:18;;;;;;;22.42;20.10;;;14.50;99.90;;;;;;4167809;28;20120;-79
2021/05/13 08:05:38;;;;;;;25.13;18.35;;;14.60;99.90;;;;;;4167850;28;20488;-80
2021/05/13 08:08:16;;;;;;;21.20;19.05;;;14.80;99.90;;;;;;4162717;28;20033;-79
2021/05/13 08:10:17;;;;;;;18.13;16.17;;;15.00;99.90;;;;;;4164637;28;20074;-81
2021/05/13 08:12:18;;;;;;;17.85;15.98;;;15.10;99.90;;;;;;4160932;28;20180;-78
2021/05/13 08:14:19;;;;;;;20.40;16.15;;;15.30;99.90;;;;;;4171068;28;20036;-78
2021/05/13 08:16:20;;;;;;;18.90;16.90;;;15.40;99.90;;;;;;4172622;28;20028;-78
2021/05/13 08:21:18;;;;;;;19.15;16.17;;;15.70;99.90;;;;;;4167993;28;20103;-80
2021/05/13 08:25:57;;;;;;;17.17;14.63;;;15.70;99.90;;;;;;4168900;28;20052;-80
2021/05/13 08:30:55;;;;;;;16.65;14.85;;;16.20;99.90;;;;;;4173344;28;20094;-79
2021/05/13 08:35:52;;;;;;;20.98;14.98;;;16.50;99.90;;;;;;4167761;28;20048;-80
2021/05/13 08:37:53;;;;;;;16.77;15.15;;;16.70;99.90;;;;;;4165886;28;20446;-77
2021/05/13 08:42:34;;;;;;;16.77;15.18;;;16.90;99.90;;;;;;4175890;28;20427;-78
2021/05/13 08:44:54;;;;;;;16.52;13.52;;;17.00;99.90;;;;;;4170613;28;20041;-77
2021/05/13 08:49:32;;;;;;;15.65;14.10;;;17.20;99.90;;;;;;4173868;28;20088;-78
2021/05/13 08:51:34;;;;;;;15.70;14.10;;;17.60;99.90;;;;;;4178410;28;20476;-78
2021/05/13 08:56:25;;;;;;;16.45;14.73;;;17.90;99.90;;;;;;4171074;28;20032;-79
2021/05/13 08:58:45;;;;;;;15.75;14.07;;;17.80;99.90;;;;;;4167499;28;20033;-80
2021/05/13 09:01:24;;;;;;;15.73;13.70;;;18.00;99.90;;;;;;4161403;28;20043;-79
2021/05/13 09:03:53;;;;;;;17.70;13.45;;;18.00;99.90;;;;;;4165441;28;20113;-78
2021/05/13 09:06:12;;;;;;;14.90;13.50;;;18.20;99.90;;;;;;4168168;28;20037;-79
2021/05/13 09:08:38;;;;;;;16.00;14.40;;;18.10;99.90;;;;;;4170241;28;20037;-77
2021/05/13 09:11:17;;;;;;;16.92;15.23;;;18.30;99.90;;;;;;4169842;28;20052;-79
2021/05/13 09:13:30;;;;;;;15.73;14.10;;;18.20;99.90;;;;;;4172243;28;20109;-77
2021/05/13 09:15:32;;;;;;;;;;;18.30;99.90;;;;;;4165663;28;20448;-78
2021/05/13 09:17:34;;;;;;;14.15;12.75;;;18.50;99.90;;;;;;4163295;28;19913;-77
2021/05/13 09:19:35;;;;;;;13.63;12.18;;;18.70;99.90;;;;;;4167112;28;20472;-77
2021/05/13 09:21:51;;;;;;;12.75;11.10;;;18.60;99.90;;;;;;4172047;28;20129;-74
2021/05/13 09:23:52;;;;;;;13.32;12.02;;;18.70;99.90;;;;;;4174655;28;20052;-78
2021/05/13 09:26:31;;;;;;;18.63;12.25;;;18.60;99.90;;;;;;4173463;28;20027;-78
2021/05/13 09:31:32;;;;;;;14.82;10.38;;;18.80;99.90;;;;;;4171841;28;20031;-81
2021/05/13 09:34:10;;;;;;;16.90;10.32;;;19.00;99.90;;;;;;4170622;28;20135;-80
2021/05/13 09:36:20;;;;;;;14.93;11.13;;;19.50;99.90;;;;;;4171537;28;20164;-79
2021/05/13 09:43:21;;;;;;;14.82;11.13;;;20.30;99.90;;;;;;4173368;28;20035;-78
2021/05/13 09:45:59;;;;;;;11.80;9.43;;;20.50;99.90;;;;;;4173371;28;20055;-79
2021/05/13 09:48:00;;;;;;;12.63;10.23;;;20.80;99.90;;;;;;4172647;28;20044;-75
2021/05/13 09:50:19;;;;;;;15.43;10.27;;;21.40;99.90;;;;;;4172281;28;20033;-81
2021/05/13 09:52:42;;;;;;;12.82;9.40;;;21.50;99.90;;;;;;4168061;28;20382;-77
2021/05/13 09:54:43;;;;;;;15.07;10.57;;;21.50;99.90;;;;;;4177523;28;20040;-77
2021/05/13 09:57:02;;;;;;;12.80;10.75;;;21.50;99.90;;;;;;4176570;28;20263;-79
2021/05/13 09:59:23;;;;;;;14.90;10.40;;;20.80;99.90;;;;;;4167924;28;20033;-77
2021/05/13 10:09:03;;;;;;;11.23;8.30;;;19.00;99.90;;;;;;4170611;28;20024;-77
2021/05/13 10:13:43;;;;;;;12.48;8.90;;;19.20;99.90;;;;;;4171124;28;20117;-75
2021/05/13 10:15:44;;;;;;;9.15;7.63;;;19.20;99.90;;;;;;4159710;28;20030;-75
2021/05/13 10:17:46;;;;;;;12.48;8.75;;;19.10;99.90;;;;;;4161582;28;20033;-75
2021/05/13 10:20:06;;;;;;;10.00;7.72;;;19.00;99.90;;;;;;4139591;28;20037;-74
2021/05/13 10:22:11;;;;;;;11.43;8.20;;;18.80;99.90;;;;;;4154842;28;20029;-76
2021/05/13 10:24:12;;;;;;;11.27;7.65;;;18.60;99.90;;;;;;4158804;28;20493;-77
2021/05/13 10:26:50;;;;;;;64.88;8.88;;;18.60;99.90;;;;;;4164433;28;20080;-81
2021/05/13 10:29:09;;;;;;;12.27;8.65;;;18.70;99.90;;;;;;4175595;28;20037;-76
2021/05/13 10:31:09;;;;;;;11.95;8.60;;;18.80;99.90;;;;;;4152116;28;20492;-78
2021/05/13 10:33:13;;;;;;;8.82;7.97;;;18.80;99.90;;;;;;4151752;28;20083;-81
2021/05/13 10:35:33;;;;;;;;;;;18.60;99.90;;;;;;4169286;28;20051;-76
2021/05/13 10:38:19;;;;;;;9.73;7.95;;;18.60;99.90;;;;;;4168787;28;19963;-79
2021/05/13 10:43:25;;;;;;;9.30;7.35;;;18.80;99.90;;;;;;4173535;28;20071;-79
2021/05/13 10:53:36;;;;;;;9.05;6.20;;;19.90;99.90;;;;;;4154149;28;20027;-77
2021/05/13 10:55:37;;;;;;;9.70;6.18;;;20.20;99.90;;;;;;4162881;28;20369;-81
2021/05/13 10:57:55;;;;;;;10.18;6.07;;;;;;;;;;4170833;28;20116;-80
2021/05/13 11:00:06;;;;;;;11.55;6.75;;;22.80;99.90;;;;;;4164932;28;20045;-80
2021/05/13 11:02:35;;;;;;;10.68;6.38;;;23.70;99.90;;;;;;4156430;28;20029;-77
2021/05/13 11:04:36;;;;;;;8.95;6.25;;;24.70;96.50;;;;;;4161456;28;20397;-78
2021/05/13 11:06:56;;;;;;;13.77;6.85;;;24.70;92.90;;;;;;4164863;28;20037;-78
2021/05/13 11:12:14;;;;;;;11.85;6.13;;;24.40;96.30;;;;;;4165464;28;20031;-81
2021/05/13 11:16:48;;;;;;;9.70;5.53;;;24.70;86.30;;;;;;4166423;28;20079;-78
2021/05/13 11:22:01;;;;;;;13.30;6.82;;;25.50;80.30;;;;;;4171853;28;20052;-77
2021/05/13 11:26:23;;;;;;;10.98;5.78;;;25.30;99.30;;;;;;4167137;28;20086;-75
2021/05/13 11:31:09;;;;;;;7.40;4.95;;;25.90;72.40;;;;;;4168185;28;20033;-78
2021/05/13 11:33:09;;;;;;;10.05;5.70;;;27.20;80.30;;;;;;4172958;28;20030;-76
2021/05/13 11:37:51;;;;;;;8.52;4.70;;;26.00;70.90;;;;;;4170461;28;20064;-77
2021/05/13 11:40:22;;;;;;;9.75;5.88;;;25.50;69.40;;;;;;4157134;28;20048;-76
2021/05/13 11:53:08;;;;;;;7.78;4.70;;;26.80;63.60;;;;;;4180203;28;20071;-75
2021/05/13 11:55:29;;;;;;;9.38;5.85;;;27.50;60.20;;;;;;4178726;28;20041;-75
2021/05/13 12:00:09;;;;;;;7.68;4.80;;;29.50;54.70;;;;;;4163554;28;20095;-75
2021/05/13 12:02:14;;;;;;;5.78;4.32;;;29.40;54.80;;;;;;4166982;28;20026;-76
2021/05/13 12:04:21;;;;;;;8.23;4.72;;;28.80;56.30;;;;;;4163975;28;20022;-76
2021/05/13 12:06:23;;;;;;;7.72;4.10;;;28.00;56.60;;;;;;4161995;28;20030;-75
2021/05/13 12:08:42;;;;;;;11.57;4.93;;;27.70;56.80;;;;;;4161217;28;20033;-75
2021/05/13 12:10:44;;;;;;;7.13;4.82;;;;;;;;;;4169801;28;20556;-75
2021/05/13 12:13:04;;;;;;;4.60;4.15;;;26.70;58.20;;;;;;4164661;28;20045;-75
2021/05/13 12:18:11;;;;;;;11.95;4.85;;;23.60;63.40;;;;;;4158645;28;20041;-76
2021/05/13 12:20:12;;;;;;;9.15;4.93;;;22.50;70.50;;;;;;4159330;28;20045;-75
2021/05/13 12:22:13;;;;;;;7.25;4.80;;;22.20;69.30;;;;;;4180421;28;20036;-74
2021/05/13 12:24:14;;;;;;;7.50;4.45;;;21.70;68.60;;;;;;4167397;28;20018;-75
2021/05/13 12:26:24;;;;;;;10.52;4.40;;;21.50;69.10;;;;;;4163596;28;20053;-74
2021/05/13 12:31:22;;;;;;;6.35;4.60;;;21.30;72.70;;;;;;4162629;28;20475;-76
2021/05/13 12:33:45;;;;;;;10.95;5.25;;;21.40;75.20;;;;;;4170043;28;20026;-74
2021/05/13 12:38:27;;;;;;;;;;;21.60;71.20;;;;;;4166979;28;20128;-75
2021/05/13 12:40:47;;;;;;;9.00;4.80;;;21.60;72.50;;;;;;4174355;28;20430;-75
2021/05/13 12:43:06;;;;;;;8.07;4.97;;;21.50;71.70;;;;;;4174952;28;20461;-75
2021/05/13 12:45:21;;;;;;;7.70;4.53;;;21.30;73.70;;;;;;4153195;28;20077;-77
2021/05/13 12:47:25;;;;;;;10.30;4.30;;;21.00;75.90;;;;;;4169593;28;20415;-75
2021/05/13 12:49:45;;;;;;;5.72;3.95;;;20.80;77.80;;;;;;4171744;28;20208;-75
2021/05/13 12:52:10;;;;;;;7.40;3.60;;;21.00;79.50;;;;;;4158935;28;20061;-75
2021/05/13 12:54:37;;;;;;;5.40;3.55;;;21.20;77.20;;;;;;4171370;28;20536;-74
2021/05/13 12:59:16;;;;;;;9.48;5.00;;;21.50;76.40;;;;;;4156304;28;20080;-75
2021/05/13 13:03:57;;;;;;;7.55;3.63;;;22.90;73.00;;;;;;4163236;28;20100;-75
2021/05/13 13:06:17;;;;;;;6.20;4.43;;;24.70;90.90;;;;;;4172308;28;20095;-75
2021/05/13 13:11:04;;;;;;;8.63;4.35;;;26.50;65.60;;;;;;4159084;28;20032;-75
2021/05/13 13:13:30;;;;;;;5.60;3.92;;;26.80;59.40;;;;;;4162460;28;20053;-76
2021/05/13 13:15:35;;;;;;;7.55;3.80;;;26.40;61.60;;;;;;4173149;28;20374;-75
2021/05/13 13:20:14;;;;;;;7.57;4.07;;;26.30;60.10;;;;;;4151715;28;20035;-76
2021/05/13 13:22:34;;;;;;;6.35;3.35;;;26.60;62.90;;;;;;4163913;28;20045;-76
2021/05/13 13:25:06;;;;;;;5.25;3.65;;;27.10;58.90;;;;;;4167348;28;20030;-75
2021/05/13 13:27:25;;;;;;;4.25;3.22;;;26.60;57.70;;;;;;4159584;28;20116;-76
2021/05/13 13:31:48;;;;;;;6.65;4.00;;;25.90;58.90;;;;;;4162145;28;20094;-76
2021/05/13 13:36:27;;;;;;;6.38;3.53;;;26.10;57.50;;;;;;4166958;28;20088;-75
2021/05/13 13:38:29;;;;;;;4.43;3.63;;;27.10;57.50;;;;;;4171577;28;20029;-75
2021/05/13 13:40:30;;;;;;;12.75;4.38;;;27.50;54.00;;;;;;4176975;28;20044;-75
2021/05/13 13:43:09;;;;;;;7.40;5.82;;;27.70;56.90;;;;;;4160503;28;20396;-75
2021/05/13 13:45:47;;;;;;;8.70;7.25;;;27.50;62.60;;;;;;4159415;28;20028;-75
2021/05/13 13:53:04;;;;;;;10.43;8.00;;;24.00;73.50;;;;;;4178350;28;20087;-74
2021/05/13 13:55:05;;;;;;;7.65;6.50;;;23.60;76.90;;;;;;4175454;28;20039;-75
2021/05/13 13:57:05;;;;;;;8.70;6.50;;;24.30;79.10;;;;;;4173810;28;20037;-74
2021/05/13 13:59:06;;;;;;;9.77;5.95;;;24.10;74.90;;;;;;4176155;28;20503;-75
2021/05/13 14:01:07;;;;;;;6.50;5.30;;;23.30;81.40;;;;;;4172139;28;20310;-75
2021/05/13 14:03:07;;;;;;;9.57;5.25;;;23.90;76.60;;;;;;4172469;28;20103;-75
2021/05/13 14:05:09;;;;;;;11.10;6.55;;;24.60;74.40;;;;;;4175105;28;20025;-74
2021/05/13 14:09:48;;;;;;;11.50;5.85;;;25.70;71.40;;;;;;4169718;28;20048;-73
2021/05/13 14:11:49;;;;;;;7.35;5.80;;;26.50;68.20;;;;;;4172877;28;21408;-74
2021/05/13 14:13:51;;;;;;;7.90;5.95;;;26.90;67.50;;;;;;4174264;28;20075;-74
2021/05/13 14:18:13;;;;;;;8.00;5.32;;;25.80;70.70;;;;;;4169432;28;20028;-76
2021/05/13 14:20:16;;;;;;;13.65;6.30;;;25.30;70.00;;;;;;4173876;28;20029;-75
2021/05/13 14:22:35;;;;;;;8.88;6.10;;;25.40;70.40;;;;;;4164803;28;20038;-75
2021/05/13 14:24:54;;;;;;;10.57;5.88;;;25.00;70.00;;;;;;4175260;28;20434;-76
2021/05/13 14:26:55;;;;;;;9.13;6.40;;;24.60;73.40;;;;;;4165484;28;20061;-74
2021/05/13 14:29:14;;;;;;;8.80;5.30;;;24.10;84.10;;;;;;4163560;28;20038;-74
2021/05/13 14:31:33;;;;;;;8.70;6.30;;;22.80;78.30;;;;;;4153090;28;20056;-74
2021/05/13 14:33:53;;;;;;;7.95;5.93;;;22.10;81.40;;;;;;4156244;28;20030;-74
2021/05/13 14:35:54;;;;;;;10.00;6.38;;;21.20;86.90;;;;;;4157634;28;20025;-73
2021/05/13 14:38:14;;;;;;;12.90;8.80;;;19.90;99.90;;;;;;4159147;28;20025;-73
2021/05/13 14:50:13;;;;;;;9.40;5.70;;;20.40;99.90;;;;;;4164393;28;20083;-75
2021/05/13 14:52:13;;;;;;;9.32;7.00;;;21.80;99.90;;;;;;4162979;28;20124;-74
2021/05/13 14:54:14;;;;;;;6.60;5.80;;;;;;;;;;4174385;28;20030;-75
2021/05/13 14:59:12;;;;;;;13.10;6.35;;;24.30;93.80;;;;;;4163577;28;20040;-75
2021/05/13 15:03:51;;;;;;;8.75;6.07;;;22.80;91.00;;;;;;4163846;28;20041;-75
2021/05/13 15:06:10;;;;;;;9.55;6.53;;;22.10;96.40;;;;;;4168896;28;20365;-75
2021/05/13 15:08:11;;;;;;;13.20;8.43;;;21.60;99.90;;;;;;4155524;28;20116;-75
2021/05/13 15:12:32;;;;;;;7.90;6.30;;;20.70;99.90;;;;;;4162791;28;20087;-75
2021/05/13 15:14:33;;;;;;;8.57;6.25;;;20.40;99.90;;;;;;4158058;28;20057;-75
2021/05/13 15:21:49;;;;;;;9.55;6.75;;;20.00;99.90;;;;;;4168523;28;20074;-74
2021/05/13 15:23:50;;;;;;;8.35;6.05;;;20.00;99.90;;;;;;4166786;28;20036;-73
2021/05/13 15:28:30;;;;;;;11.23;6.82;;;19.90;99.90;;;;;;4161810;28;20037;-75
2021/05/13 15:30:30;;;;;;;7.43;6.20;;;19.80;99.90;;;;;;4169752;28;20036;-73
2021/05/13 15:32:50;;;;;;;10.43;7.28;;;;;;;;;;4163712;28;20116;-73
2021/05/13 15:35:10;;;;;;;6.93;5.07;;;20.70;99.90;;;;;;4164683;28;20489;-75
2021/05/13 15:37:10;;;;;;;9.65;5.18;;;22.10;99.90;;;;;;4159714;28;20048;-74
2021/05/13 15:39:30;;;;;;;7.35;4.75;;;23.50;97.30;;;;;;4160480;28;20758;-75
2021/05/13 15:41:31;;;;;;;6.20;4.55;;;24.30;91.80;;;;;;4160775;28;20091;-73
2021/05/13 15:46:28;;;;;;;9.38;5.90;;;24.70;85.60;;;;;;4164697;28;20103;-75